sensor_id;sensor_type;location;lat;lon;timestamp;P1;durP1;ratioP1;P2;durP2;ratioP2
70312;SDS011;57723;51.698;5.344;2023-03-05T00:01:33;1.60;;;0.70;;
70312;SDS011;57723;51.698;5.344;2023-03-05T00:03:59;3.53;;;0.70;;
70312;SDS011;57723;51.698;5.344;2023-03-05T00:06:25;4.28;;;0.90;;
70312;SDS011;57723;51.698;5.344;2023-03-05T00:08:51;1.40;;;0.68;;
70312;SDS011;57723;51.698;5.344;2023-03-05T00:11:17;1.90;;;0.50;;
70312;SDS011;57723;51.698;5.344;2023-03-05T00:13:43;1.10;;;0.60;;
70312;SDS011;57723;51.698;5.344;2023-03-05T00:16:09;1.70;;;0.70;;
70312;SDS011;57723;51.698;5.344;2023-03-05T00:18:35;5.53;;;0.77;;
70312;SDS011;57723;51.698;5.344;2023-03-05T00:21:00;3.37;;;0.60;;
70312;SDS011;57723;51.698;5.344;2023-03-05T00:23:26;2.15;;;0.70;;
70312;SDS011;57723;51.698;5.344;2023-03-05T00:25:52;3.47;;;0.80;;
70312;SDS011;57723;51.698;5.344;2023-03-05T00:28:17;2.42;;;0.77;;
70312;SDS011;57723;51.698;5.344;2023-03-05T00:30:43;1.33;;;0.57;;
70312;SDS011;57723;51.698;5.344;2023-03-05T00:33:08;1.33;;;0.60;;
70312;SDS011;57723;51.698;5.344;2023-03-05T00:35:39;2.70;;;0.95;;
70312;SDS011;57723;51.698;5.344;2023-03-05T00:38:05;1.75;;;0.70;;
70312;SDS011;57723;51.698;5.344;2023-03-05T00:40:33;2.07;;;0.70;;
70312;SDS011;57723;51.698;5.344;2023-03-05T00:42:58;2.05;;;0.60;;
70312;SDS011;57723;51.698;5.344;2023-03-05T00:45:24;1.23;;;0.63;;
70312;SDS011;57723;51.698;5.344;2023-03-05T00:47:49;2.53;;;0.80;;
70312;SDS011;57723;51.698;5.344;2023-03-05T00:50:15;1.90;;;0.70;;
70312;SDS011;57723;51.698;5.344;2023-03-05T00:52:40;1.50;;;0.60;;
70312;SDS011;57723;51.698;5.344;2023-03-05T00:55:05;1.87;;;0.50;;
70312;SDS011;57723;51.698;5.344;2023-03-05T00:57:31;2.90;;;0.80;;
70312;SDS011;57723;51.698;5.344;2023-03-05T00:59:56;1.50;;;0.57;;
70312;SDS011;57723;51.698;5.344;2023-03-05T01:02:21;2.13;;;0.60;;
70312;SDS011;57723;51.698;5.344;2023-03-05T01:04:47;2.30;;;0.60;;
70312;SDS011;57723;51.698;5.344;2023-03-05T01:07:12;2.80;;;0.60;;
70312;SDS011;57723;51.698;5.344;2023-03-05T01:09:37;2.95;;;0.73;;
70312;SDS011;57723;51.698;5.344;2023-03-05T01:12:02;2.05;;;0.80;;
70312;SDS011;57723;51.698;5.344;2023-03-05T01:14:28;1.83;;;0.52;;
70312;SDS011;57723;51.698;5.344;2023-03-05T01:16:53;2.03;;;0.60;;
70312;SDS011;57723;51.698;5.344;2023-03-05T01:19:18;2.00;;;0.60;;
70312;SDS011;57723;51.698;5.344;2023-03-05T01:21:43;1.60;;;0.53;;
70312;SDS011;57723;51.698;5.344;2023-03-05T01:24:09;3.40;;;0.70;;
70312;SDS011;57723;51.698;5.344;2023-03-05T01:26:37;1.53;;;0.50;;
70312;SDS011;57723;51.698;5.344;2023-03-05T01:29:03;1.77;;;0.60;;
70312;SDS011;57723;51.698;5.344;2023-03-05T01:31:28;2.37;;;0.60;;
70312;SDS011;57723;51.698;5.344;2023-03-05T01:33:54;0.87;;;0.60;;
70312;SDS011;57723;51.698;5.344;2023-03-05T01:36:20;3.38;;;0.80;;
70312;SDS011;57723;51.698;5.344;2023-03-05T01:38:50;2.38;;;0.60;;
70312;SDS011;57723;51.698;5.344;2023-03-05T01:41:16;1.08;;;0.50;;
70312;SDS011;57723;51.698;5.344;2023-03-05T01:43:42;3.88;;;1.08;;
70312;SDS011;57723;51.698;5.344;2023-03-05T01:49:00;1.95;;;0.70;;
70312;SDS011;57723;51.698;5.344;2023-03-05T01:51:27;1.20;;;0.50;;
70312;SDS011;57723;51.698;5.344;2023-03-05T01:53:53;1.27;;;0.63;;
70312;SDS011;57723;51.698;5.344;2023-03-05T01:56:21;2.80;;;0.60;;
70312;SDS011;57723;51.698;5.344;2023-03-05T01:58:46;1.20;;;0.45;;
70312;SDS011;57723;51.698;5.344;2023-03-05T02:01:12;0.90;;;0.60;;
70312;SDS011;57723;51.698;5.344;2023-03-05T02:03:40;1.83;;;0.60;;
70312;SDS011;57723;51.698;5.344;2023-03-05T02:06:06;2.05;;;0.70;;
70312;SDS011;57723;51.698;5.344;2023-03-05T02:08:31;1.80;;;0.60;;
70312;SDS011;57723;51.698;5.344;2023-03-05T02:10:56;2.40;;;0.63;;
70312;SDS011;57723;51.698;5.344;2023-03-05T02:13:23;1.37;;;0.60;;
70312;SDS011;57723;51.698;5.344;2023-03-05T02:15:50;2.28;;;0.55;;
70312;SDS011;57723;51.698;5.344;2023-03-05T02:18:17;3.25;;;0.60;;
70312;SDS011;57723;51.698;5.344;2023-03-05T02:23:21;2.80;;;0.70;;
70312;SDS011;57723;51.698;5.344;2023-03-05T02:25:47;1.92;;;0.52;;
70312;SDS011;57723;51.698;5.344;2023-03-05T02:28:14;1.48;;;0.60;;
70312;SDS011;57723;51.698;5.344;2023-03-05T02:30:41;1.95;;;0.65;;
70312;SDS011;57723;51.698;5.344;2023-03-05T02:33:07;2.35;;;0.50;;
70312;SDS011;57723;51.698;5.344;2023-03-05T02:35:32;2.00;;;0.50;;
70312;SDS011;57723;51.698;5.344;2023-03-05T02:37:57;1.23;;;0.50;;
70312;SDS011;57723;51.698;5.344;2023-03-05T02:40:23;1.93;;;0.50;;
70312;SDS011;57723;51.698;5.344;2023-03-05T02:42:51;1.40;;;0.50;;
70312;SDS011;57723;51.698;5.344;2023-03-05T02:45:17;1.00;;;0.40;;
70312;SDS011;57723;51.698;5.344;2023-03-05T02:47:42;1.48;;;0.60;;
70312;SDS011;57723;51.698;5.344;2023-03-05T02:50:10;1.17;;;0.43;;
70312;SDS011;57723;51.698;5.344;2023-03-05T02:52:39;1.55;;;0.60;;
70312;SDS011;57723;51.698;5.344;2023-03-05T02:55:04;1.52;;;0.50;;
70312;SDS011;57723;51.698;5.344;2023-03-05T02:57:30;1.67;;;0.50;;
70312;SDS011;57723;51.698;5.344;2023-03-05T02:59:55;0.93;;;0.57;;
70312;SDS011;57723;51.698;5.344;2023-03-05T03:02:23;0.98;;;0.50;;
70312;SDS011;57723;51.698;5.344;2023-03-05T03:04:54;2.72;;;0.70;;
70312;SDS011;57723;51.698;5.344;2023-03-05T03:07:20;0.80;;;0.43;;
70312;SDS011;57723;51.698;5.344;2023-03-05T03:09:45;1.73;;;0.60;;
70312;SDS011;57723;51.698;5.344;2023-03-05T03:12:10;1.07;;;0.70;;
70312;SDS011;57723;51.698;5.344;2023-03-05T03:14:37;2.00;;;0.50;;
70312;SDS011;57723;51.698;5.344;2023-03-05T03:17:07;1.60;;;0.50;;
70312;SDS011;57723;51.698;5.344;2023-03-05T03:19:34;1.83;;;0.60;;
70312;SDS011;57723;51.698;5.344;2023-03-05T03:21:59;1.07;;;0.40;;
70312;SDS011;57723;51.698;5.344;2023-03-05T03:24:25;0.75;;;0.50;;
70312;SDS011;57723;51.698;5.344;2023-03-05T03:26:50;1.30;;;0.50;;
70312;SDS011;57723;51.698;5.344;2023-03-05T03:29:16;1.40;;;0.60;;
70312;SDS011;57723;51.698;5.344;2023-03-05T03:31:43;2.25;;;0.50;;
70312;SDS011;57723;51.698;5.344;2023-03-05T03:34:09;2.00;;;0.60;;
70312;SDS011;57723;51.698;5.344;2023-03-05T03:36:35;1.67;;;0.40;;
70312;SDS011;57723;51.698;5.344;2023-03-05T03:39:00;2.15;;;0.80;;
70312;SDS011;57723;51.698;5.344;2023-03-05T03:41:25;0.77;;;0.40;;
70312;SDS011;57723;51.698;5.344;2023-03-05T03:43:52;1.35;;;0.57;;
70312;SDS011;57723;51.698;5.344;2023-03-05T03:46:20;1.15;;;0.52;;
70312;SDS011;57723;51.698;5.344;2023-03-05T03:48:48;1.97;;;0.60;;
70312;SDS011;57723;51.698;5.344;2023-03-05T03:51:13;1.00;;;0.50;;
70312;SDS011;57723;51.698;5.344;2023-03-05T03:53:39;1.30;;;0.57;;
70312;SDS011;57723;51.698;5.344;2023-03-05T03:56:04;4.97;;;0.80;;
70312;SDS011;57723;51.698;5.344;2023-03-05T03:58:29;1.43;;;0.40;;
70312;SDS011;57723;51.698;5.344;2023-03-05T04:00:56;0.35;;;0.35;;
70312;SDS011;57723;51.698;5.344;2023-03-05T04:03:22;0.53;;;0.40;;
70312;SDS011;57723;51.698;5.344;2023-03-05T04:05:47;1.90;;;0.50;;
70312;SDS011;57723;51.698;5.344;2023-03-05T04:08:12;1.67;;;0.60;;
70312;SDS011;57723;51.698;5.344;2023-03-05T04:10:37;0.70;;;0.40;;
70312;SDS011;57723;51.698;5.344;2023-03-05T04:13:03;0.65;;;0.50;;
70312;SDS011;57723;51.698;5.344;2023-03-05T04:15:29;1.87;;;0.50;;
70312;SDS011;57723;51.698;5.344;2023-03-05T04:17:54;1.30;;;0.57;;
70312;SDS011;57723;51.698;5.344;2023-03-05T04:20:19;2.53;;;0.60;;
70312;SDS011;57723;51.698;5.344;2023-03-05T04:22:45;2.30;;;0.60;;
70312;SDS011;57723;51.698;5.344;2023-03-05T04:25:11;0.70;;;0.30;;
70312;SDS011;57723;51.698;5.344;2023-03-05T04:27:36;1.13;;;0.50;;
70312;SDS011;57723;51.698;5.344;2023-03-05T04:30:02;1.38;;;0.50;;
70312;SDS011;57723;51.698;5.344;2023-03-05T04:32:28;0.67;;;0.50;;
70312;SDS011;57723;51.698;5.344;2023-03-05T04:34:54;0.93;;;0.60;;
70312;SDS011;57723;51.698;5.344;2023-03-05T04:37:20;1.35;;;0.50;;
70312;SDS011;57723;51.698;5.344;2023-03-05T04:39:45;0.90;;;0.50;;
70312;SDS011;57723;51.698;5.344;2023-03-05T04:42:11;1.20;;;0.60;;
70312;SDS011;57723;51.698;5.344;2023-03-05T04:44:36;1.30;;;0.47;;
70312;SDS011;57723;51.698;5.344;2023-03-05T04:47:02;1.20;;;0.50;;
70312;SDS011;57723;51.698;5.344;2023-03-05T04:49:27;1.75;;;0.60;;
70312;SDS011;57723;51.698;5.344;2023-03-05T04:51:53;1.80;;;0.60;;
70312;SDS011;57723;51.698;5.344;2023-03-05T04:54:18;2.10;;;0.60;;
70312;SDS011;57723;51.698;5.344;2023-03-05T04:56:43;1.43;;;0.50;;
70312;SDS011;57723;51.698;5.344;2023-03-05T04:59:09;0.90;;;0.50;;
70312;SDS011;57723;51.698;5.344;2023-03-05T05:01:34;1.53;;;0.47;;
70312;SDS011;57723;51.698;5.344;2023-03-05T05:03:59;0.93;;;0.45;;
70312;SDS011;57723;51.698;5.344;2023-03-05T05:06:25;2.20;;;0.65;;
70312;SDS011;57723;51.698;5.344;2023-03-05T05:08:53;2.00;;;0.50;;
70312;SDS011;57723;51.698;5.344;2023-03-05T05:11:18;1.08;;;0.50;;
70312;SDS011;57723;51.698;5.344;2023-03-05T05:13:43;0.63;;;0.47;;
70312;SDS011;57723;51.698;5.344;2023-03-05T05:16:09;4.47;;;0.60;;
70312;SDS011;57723;51.698;5.344;2023-03-05T05:18:34;1.20;;;0.30;;
70312;SDS011;57723;51.698;5.344;2023-03-05T05:21:00;0.60;;;0.40;;
70312;SDS011;57723;51.698;5.344;2023-03-05T05:23:25;0.35;;;0.35;;
70312;SDS011;57723;51.698;5.344;2023-03-05T05:25:57;1.03;;;0.30;;
70312;SDS011;57723;51.698;5.344;2023-03-05T05:28:23;1.23;;;0.60;;
70312;SDS011;57723;51.698;5.344;2023-03-05T05:30:48;0.70;;;0.40;;
70312;SDS011;57723;51.698;5.344;2023-03-05T05:33:13;0.63;;;0.40;;
70312;SDS011;57723;51.698;5.344;2023-03-05T05:35:41;3.23;;;0.50;;
70312;SDS011;57723;51.698;5.344;2023-03-05T05:38:06;1.17;;;0.50;;
70312;SDS011;57723;51.698;5.344;2023-03-05T05:40:31;1.40;;;0.60;;
70312;SDS011;57723;51.698;5.344;2023-03-05T05:42:57;0.50;;;0.40;;
70312;SDS011;57723;51.698;5.344;2023-03-05T05:45:22;1.23;;;0.43;;
70312;SDS011;57723;51.698;5.344;2023-03-05T05:47:47;1.50;;;0.40;;
70312;SDS011;57723;51.698;5.344;2023-03-05T05:50:12;1.63;;;0.50;;
70312;SDS011;57723;51.698;5.344;2023-03-05T05:52:39;1.02;;;0.50;;
70312;SDS011;57723;51.698;5.344;2023-03-05T05:55:04;1.70;;;0.40;;
70312;SDS011;57723;51.698;5.344;2023-03-05T05:57:30;1.70;;;0.50;;
70312;SDS011;57723;51.698;5.344;2023-03-05T05:59:55;1.73;;;0.77;;
70312;SDS011;57723;51.698;5.344;2023-03-05T06:02:23;1.90;;;0.53;;
70312;SDS011;57723;51.698;5.344;2023-03-05T06:04:49;0.70;;;0.40;;
70312;SDS011;57723;51.698;5.344;2023-03-05T06:07:14;1.95;;;0.40;;
70312;SDS011;57723;51.698;5.344;2023-03-05T06:09:40;2.72;;;0.40;;
70312;SDS011;57723;51.698;5.344;2023-03-05T06:12:05;0.60;;;0.40;;
70312;SDS011;57723;51.698;5.344;2023-03-05T06:14:32;0.97;;;0.47;;
70312;SDS011;57723;51.698;5.344;2023-03-05T06:17:00;1.55;;;0.43;;
70312;SDS011;57723;51.698;5.344;2023-03-05T06:19:25;1.27;;;0.40;;
70312;SDS011;57723;51.698;5.344;2023-03-05T06:21:50;1.67;;;0.63;;
70312;SDS011;57723;51.698;5.344;2023-03-05T06:24:16;0.63;;;0.53;;
70312;SDS011;57723;51.698;5.344;2023-03-05T06:26:43;2.85;;;0.40;;
70312;SDS011;57723;51.698;5.344;2023-03-05T06:29:10;0.80;;;0.38;;
70312;SDS011;57723;51.698;5.344;2023-03-05T06:31:36;2.73;;;0.50;;
70312;SDS011;57723;51.698;5.344;2023-03-05T06:34:03;1.58;;;0.50;;
70312;SDS011;57723;51.698;5.344;2023-03-05T06:36:32;0.80;;;0.50;;
70312;SDS011;57723;51.698;5.344;2023-03-05T06:38:57;2.83;;;0.80;;
70312;SDS011;57723;51.698;5.344;2023-03-05T06:41:28;3.08;;;0.43;;
70312;SDS011;57723;51.698;5.344;2023-03-05T06:43:54;0.80;;;0.40;;
70312;SDS011;57723;51.698;5.344;2023-03-05T06:46:24;2.00;;;0.40;;
70312;SDS011;57723;51.698;5.344;2023-03-05T06:48:51;1.23;;;0.50;;
70312;SDS011;57723;51.698;5.344;2023-03-05T06:51:17;2.33;;;0.60;;
70312;SDS011;57723;51.698;5.344;2023-03-05T06:53:43;1.25;;;0.47;;
70312;SDS011;57723;51.698;5.344;2023-03-05T06:56:09;3.13;;;0.70;;
70312;SDS011;57723;51.698;5.344;2023-03-05T06:58:34;2.22;;;0.50;;
70312;SDS011;57723;51.698;5.344;2023-03-05T07:01:04;2.07;;;0.50;;
70312;SDS011;57723;51.698;5.344;2023-03-05T07:03:30;1.55;;;0.40;;
70312;SDS011;57723;51.698;5.344;2023-03-05T07:05:55;40.20;;;36.70;;
70312;SDS011;57723;51.698;5.344;2023-03-05T07:08:20;37.63;;;34.53;;
70312;SDS011;57723;51.698;5.344;2023-03-05T07:10:46;38.93;;;35.20;;
70312;SDS011;57723;51.698;5.344;2023-03-05T07:13:11;6.70;;;2.70;;
70312;SDS011;57723;51.698;5.344;2023-03-05T07:15:37;7.67;;;0.80;;
70312;SDS011;57723;51.698;5.344;2023-03-05T07:18:05;14.20;;;0.90;;
70312;SDS011;57723;51.698;5.344;2023-03-05T07:20:35;13.88;;;0.82;;
70312;SDS011;57723;51.698;5.344;2023-03-05T07:23:03;2.70;;;0.52;;
70312;SDS011;57723;51.698;5.344;2023-03-05T07:25:28;4.28;;;0.68;;
70312;SDS011;57723;51.698;5.344;2023-03-05T07:28:00;2.17;;;0.50;;
70312;SDS011;57723;51.698;5.344;2023-03-05T07:30:29;6.20;;;0.60;;
70312;SDS011;57723;51.698;5.344;2023-03-05T07:32:54;9.20;;;1.50;;
70312;SDS011;57723;51.698;5.344;2023-03-05T07:35:20;5.37;;;0.50;;
70312;SDS011;57723;51.698;5.344;2023-03-05T07:37:49;5.15;;;0.60;;
70312;SDS011;57723;51.698;5.344;2023-03-05T07:40:15;2.22;;;0.60;;
70312;SDS011;57723;51.698;5.344;2023-03-05T07:42:44;10.20;;;0.70;;
70312;SDS011;57723;51.698;5.344;2023-03-05T07:45:10;2.70;;;0.40;;
70312;SDS011;57723;51.698;5.344;2023-03-05T07:47:35;4.63;;;0.47;;
70312;SDS011;57723;51.698;5.344;2023-03-05T07:50:06;3.95;;;0.60;;
70312;SDS011;57723;51.698;5.344;2023-03-05T07:52:32;6.47;;;0.50;;
70312;SDS011;57723;51.698;5.344;2023-03-05T07:55:00;4.15;;;0.80;;
70312;SDS011;57723;51.698;5.344;2023-03-05T07:57:26;2.10;;;0.43;;
70312;SDS011;57723;51.698;5.344;2023-03-05T07:59:51;6.40;;;0.60;;
70312;SDS011;57723;51.698;5.344;2023-03-05T08:02:17;2.23;;;0.40;;
70312;SDS011;57723;51.698;5.344;2023-03-05T08:04:43;2.08;;;0.50;;
70312;SDS011;57723;51.698;5.344;2023-03-05T08:07:09;1.77;;;0.35;;
70312;SDS011;57723;51.698;5.344;2023-03-05T08:09:37;1.35;;;0.43;;
70312;SDS011;57723;51.698;5.344;2023-03-05T08:12:06;3.13;;;0.50;;
70312;SDS011;57723;51.698;5.344;2023-03-05T08:14:32;1.17;;;0.40;;
70312;SDS011;57723;51.698;5.344;2023-03-05T08:16:57;0.50;;;0.40;;
70312;SDS011;57723;51.698;5.344;2023-03-05T08:19:23;1.20;;;0.38;;
70312;SDS011;57723;51.698;5.344;2023-03-05T08:21:51;0.87;;;0.30;;
70312;SDS011;57723;51.698;5.344;2023-03-05T08:24:19;2.08;;;0.50;;
70312;SDS011;57723;51.698;5.344;2023-03-05T08:26:45;1.63;;;0.40;;
70312;SDS011;57723;51.698;5.344;2023-03-05T08:29:10;1.25;;;0.52;;
70312;SDS011;57723;51.698;5.344;2023-03-05T08:31:36;0.47;;;0.35;;
70312;SDS011;57723;51.698;5.344;2023-03-05T08:34:02;0.95;;;0.50;;
70312;SDS011;57723;51.698;5.344;2023-03-05T08:36:29;1.67;;;0.50;;
70312;SDS011;57723;51.698;5.344;2023-03-05T08:38:54;0.83;;;0.37;;
70312;SDS011;57723;51.698;5.344;2023-03-05T08:41:20;1.53;;;0.70;;
70312;SDS011;57723;51.698;5.344;2023-03-05T08:43:49;0.80;;;0.45;;
70312;SDS011;57723;51.698;5.344;2023-03-05T08:46:15;1.85;;;0.40;;
70312;SDS011;57723;51.698;5.344;2023-03-05T08:48:40;0.90;;;0.30;;
70312;SDS011;57723;51.698;5.344;2023-03-05T08:51:13;1.25;;;0.40;;
70312;SDS011;57723;51.698;5.344;2023-03-05T08:53:39;2.30;;;0.50;;
70312;SDS011;57723;51.698;5.344;2023-03-05T08:56:04;0.88;;;0.50;;
70312;SDS011;57723;51.698;5.344;2023-03-05T08:58:30;2.40;;;0.60;;
70312;SDS011;57723;51.698;5.344;2023-03-05T09:00:55;3.00;;;0.80;;
70312;SDS011;57723;51.698;5.344;2023-03-05T09:03:21;5.80;;;0.82;;
70312;SDS011;57723;51.698;5.344;2023-03-05T09:05:47;9.73;;;0.60;;
70312;SDS011;57723;51.698;5.344;2023-03-05T09:08:12;4.68;;;0.70;;
70312;SDS011;57723;51.698;5.344;2023-03-05T09:10:39;5.63;;;0.73;;
70312;SDS011;57723;51.698;5.344;2023-03-05T09:13:05;1.95;;;0.57;;
70312;SDS011;57723;51.698;5.344;2023-03-05T09:15:33;5.53;;;1.20;;
70312;SDS011;57723;51.698;5.344;2023-03-05T09:17:58;5.82;;;1.00;;
70312;SDS011;57723;51.698;5.344;2023-03-05T09:20:25;2.87;;;1.20;;
70312;SDS011;57723;51.698;5.344;2023-03-05T09:22:51;7.72;;;1.08;;
70312;SDS011;57723;51.698;5.344;2023-03-05T09:25:16;3.97;;;1.60;;
70312;SDS011;57723;51.698;5.344;2023-03-05T09:27:44;15.73;;;1.80;;
70312;SDS011;57723;51.698;5.344;2023-03-05T09:30:10;10.77;;;2.67;;
70312;SDS011;57723;51.698;5.344;2023-03-05T09:32:36;11.77;;;2.75;;
70312;SDS011;57723;51.698;5.344;2023-03-05T09:35:01;15.37;;;3.07;;
70312;SDS011;57723;51.698;5.344;2023-03-05T09:37:26;20.27;;;2.75;;
70312;SDS011;57723;51.698;5.344;2023-03-05T09:39:55;22.47;;;3.13;;
70312;SDS011;57723;51.698;5.344;2023-03-05T09:42:26;11.98;;;1.92;;
70312;SDS011;57723;51.698;5.344;2023-03-05T09:45:06;12.25;;;2.92;;
70312;SDS011;57723;51.698;5.344;2023-03-05T09:47:43;12.75;;;2.80;;
70312;SDS011;57723;51.698;5.344;2023-03-05T09:52:57;16.80;;;2.90;;
70312;SDS011;57723;51.698;5.344;2023-03-05T09:55:28;9.02;;;2.30;;
70312;SDS011;57723;51.698;5.344;2023-03-05T09:57:57;9.95;;;2.47;;
70312;SDS011;57723;51.698;5.344;2023-03-05T10:00:33;17.08;;;2.15;;
70312;SDS011;57723;51.698;5.344;2023-03-05T10:03:03;12.80;;;2.63;;
70312;SDS011;57723;51.698;5.344;2023-03-05T10:08:11;11.15;;;3.05;;
70312;SDS011;57723;51.698;5.344;2023-03-05T10:10:56;14.82;;;2.83;;
70312;SDS011;57723;51.698;5.344;2023-03-05T10:13:23;15.57;;;2.90;;
70312;SDS011;57723;51.698;5.344;2023-03-05T10:18:32;12.13;;;2.60;;
70312;SDS011;57723;51.698;5.344;2023-03-05T10:26:38;10.50;;;2.10;;
70312;SDS011;57723;51.698;5.344;2023-03-05T10:29:17;13.85;;;2.20;;
70312;SDS011;57723;51.698;5.344;2023-03-05T10:34:19;10.97;;;2.90;;
70312;SDS011;57723;51.698;5.344;2023-03-05T10:37:01;11.80;;;2.17;;
70312;SDS011;57723;51.698;5.344;2023-03-05T10:44:55;6.35;;;1.38;;
70312;SDS011;57723;51.698;5.344;2023-03-05T10:49:51;12.80;;;2.03;;
70312;SDS011;57723;51.698;5.344;2023-03-05T10:52:17;6.68;;;1.63;;
70312;SDS011;57723;51.698;5.344;2023-03-05T10:54:46;6.22;;;1.58;;
70312;SDS011;57723;51.698;5.344;2023-03-05T10:57:21;8.00;;;1.40;;
70312;SDS011;57723;51.698;5.344;2023-03-05T10:59:56;5.82;;;1.55;;
70312;SDS011;57723;51.698;5.344;2023-03-05T11:02:25;4.77;;;1.63;;
70312;SDS011;57723;51.698;5.344;2023-03-05T11:04:52;5.53;;;1.35;;
70312;SDS011;57723;51.698;5.344;2023-03-05T11:12:28;5.22;;;1.48;;
70312;SDS011;57723;51.698;5.344;2023-03-05T11:25:25;5.25;;;1.45;;
70312;SDS011;57723;51.698;5.344;2023-03-05T11:27:53;7.60;;;1.63;;
70312;SDS011;57723;51.698;5.344;2023-03-05T11:30:29;7.55;;;1.60;;
70312;SDS011;57723;51.698;5.344;2023-03-05T11:35:37;7.20;;;1.83;;
70312;SDS011;57723;51.698;5.344;2023-03-05T11:38:03;7.20;;;2.00;;
70312;SDS011;57723;51.698;5.344;2023-03-05T11:40:30;11.65;;;1.80;;
70312;SDS011;57723;51.698;5.344;2023-03-05T11:42:56;6.45;;;1.50;;
70312;SDS011;57723;51.698;5.344;2023-03-05T11:45:23;11.35;;;1.85;;
70312;SDS011;57723;51.698;5.344;2023-03-05T11:47:52;11.90;;;2.15;;
70312;SDS011;57723;51.698;5.344;2023-03-05T11:52:57;10.32;;;1.88;;
70312;SDS011;57723;51.698;5.344;2023-03-05T11:55:31;5.45;;;1.40;;
70312;SDS011;57723;51.698;5.344;2023-03-05T12:00:43;9.23;;;1.92;;
70312;SDS011;57723;51.698;5.344;2023-03-05T12:03:13;7.15;;;1.90;;
70312;SDS011;57723;51.698;5.344;2023-03-05T12:05:40;11.02;;;1.90;;
70312;SDS011;57723;51.698;5.344;2023-03-05T12:08:08;7.10;;;1.58;;
70312;SDS011;57723;51.698;5.344;2023-03-05T12:10:37;8.15;;;1.95;;
70312;SDS011;57723;51.698;5.344;2023-03-05T12:13:09;5.40;;;1.53;;
70312;SDS011;57723;51.698;5.344;2023-03-05T12:15:43;6.75;;;1.90;;
70312;SDS011;57723;51.698;5.344;2023-03-05T12:23:21;6.30;;;1.67;;
70312;SDS011;57723;51.698;5.344;2023-03-05T12:25:50;9.27;;;2.28;;
70312;SDS011;57723;51.698;5.344;2023-03-05T12:30:53;9.27;;;1.85;;
70312;SDS011;57723;51.698;5.344;2023-03-05T12:35:54;7.13;;;2.10;;
70312;SDS011;57723;51.698;5.344;2023-03-05T12:38:39;6.25;;;1.80;;
70312;SDS011;57723;51.698;5.344;2023-03-05T12:43:55;6.32;;;1.80;;
70312;SDS011;57723;51.698;5.344;2023-03-05T12:46:35;5.60;;;2.03;;
70312;SDS011;57723;51.698;5.344;2023-03-05T12:51:46;3.75;;;1.67;;
70312;SDS011;57723;51.698;5.344;2023-03-05T12:54:31;9.00;;;2.20;;
70312;SDS011;57723;51.698;5.344;2023-03-05T12:56:59;7.50;;;2.20;;
70312;SDS011;57723;51.698;5.344;2023-03-05T12:59:45;5.47;;;2.25;;
70312;SDS011;57723;51.698;5.344;2023-03-05T13:02:24;4.90;;;2.15;;
70312;SDS011;57723;51.698;5.344;2023-03-05T13:04:51;6.30;;;1.92;;
70312;SDS011;57723;51.698;5.344;2023-03-05T13:07:17;6.68;;;2.33;;
70312;SDS011;57723;51.698;5.344;2023-03-05T13:09:54;7.60;;;2.15;;
70312;SDS011;57723;51.698;5.344;2023-03-05T13:12:20;5.32;;;2.50;;
70312;SDS011;57723;51.698;5.344;2023-03-05T13:14:46;5.60;;;2.05;;
70312;SDS011;57723;51.698;5.344;2023-03-05T13:17:31;6.45;;;2.20;;
70312;SDS011;57723;51.698;5.344;2023-03-05T13:19:58;5.53;;;2.00;;
70312;SDS011;57723;51.698;5.344;2023-03-05T13:22:24;6.03;;;1.95;;
70312;SDS011;57723;51.698;5.344;2023-03-05T13:25:03;7.53;;;2.08;;
70312;SDS011;57723;51.698;5.344;2023-03-05T13:27:30;5.45;;;2.10;;
70312;SDS011;57723;51.698;5.344;2023-03-05T13:29:56;7.70;;;1.95;;
70312;SDS011;57723;51.698;5.344;2023-03-05T13:32:25;6.65;;;2.22;;
70312;SDS011;57723;51.698;5.344;2023-03-05T13:34:52;4.17;;;1.90;;
70312;SDS011;57723;51.698;5.344;2023-03-05T13:37:40;4.57;;;2.00;;
70312;SDS011;57723;51.698;5.344;2023-03-05T13:40:17;3.72;;;1.50;;
70312;SDS011;57723;51.698;5.344;2023-03-05T13:42:42;5.72;;;1.70;;
70312;SDS011;57723;51.698;5.344;2023-03-05T13:45:26;5.47;;;1.60;;
70312;SDS011;57723;51.698;5.344;2023-03-05T13:47:54;5.82;;;1.75;;
70312;SDS011;57723;51.698;5.344;2023-03-05T13:50:21;5.68;;;1.70;;
70312;SDS011;57723;51.698;5.344;2023-03-05T13:52:47;5.45;;;1.75;;
70312;SDS011;57723;51.698;5.344;2023-03-05T13:55:14;4.32;;;1.60;;
70312;SDS011;57723;51.698;5.344;2023-03-05T13:57:44;5.70;;;1.70;;
70312;SDS011;57723;51.698;5.344;2023-03-05T14:00:26;5.10;;;1.80;;
70312;SDS011;57723;51.698;5.344;2023-03-05T14:02:53;6.00;;;1.75;;
70312;SDS011;57723;51.698;5.344;2023-03-05T14:05:18;4.25;;;1.60;;
70312;SDS011;57723;51.698;5.344;2023-03-05T14:07:47;5.80;;;1.67;;
70312;SDS011;57723;51.698;5.344;2023-03-05T14:10:33;3.90;;;1.48;;
70312;SDS011;57723;51.698;5.344;2023-03-05T14:12:59;3.72;;;1.45;;
70312;SDS011;57723;51.698;5.344;2023-03-05T14:15:29;4.13;;;1.40;;
70312;SDS011;57723;51.698;5.344;2023-03-05T14:18:28;4.43;;;1.60;;
70312;SDS011;57723;51.698;5.344;2023-03-05T14:20:57;5.30;;;1.42;;
70312;SDS011;57723;51.698;5.344;2023-03-05T14:23:32;4.00;;;1.30;;
70312;SDS011;57723;51.698;5.344;2023-03-05T14:28:43;3.43;;;1.50;;
70312;SDS011;57723;51.698;5.344;2023-03-05T14:31:12;4.95;;;1.48;;
70312;SDS011;57723;51.698;5.344;2023-03-05T14:33:39;5.07;;;1.67;;
70312;SDS011;57723;51.698;5.344;2023-03-05T14:36:05;4.95;;;1.30;;
70312;SDS011;57723;51.698;5.344;2023-03-05T14:38:31;6.17;;;1.33;;
70312;SDS011;57723;51.698;5.344;2023-03-05T14:41:19;3.33;;;1.30;;
70312;SDS011;57723;51.698;5.344;2023-03-05T14:43:45;3.05;;;1.38;;
70312;SDS011;57723;51.698;5.344;2023-03-05T14:46:10;4.70;;;1.40;;
70312;SDS011;57723;51.698;5.344;2023-03-05T14:48:36;4.57;;;1.65;;
70312;SDS011;57723;51.698;5.344;2023-03-05T14:51:02;5.77;;;1.50;;
70312;SDS011;57723;51.698;5.344;2023-03-05T14:53:33;3.67;;;1.45;;
70312;SDS011;57723;51.698;5.344;2023-03-05T14:56:03;5.32;;;2.25;;
70312;SDS011;57723;51.698;5.344;2023-03-05T14:58:29;4.17;;;1.57;;
70312;SDS011;57723;51.698;5.344;2023-03-05T15:00:56;4.93;;;1.50;;
70312;SDS011;57723;51.698;5.344;2023-03-05T15:03:24;6.43;;;1.70;;
70312;SDS011;57723;51.698;5.344;2023-03-05T15:05:53;3.33;;;1.30;;
70312;SDS011;57723;51.698;5.344;2023-03-05T15:10:45;3.95;;;1.63;;
70312;SDS011;57723;51.698;5.344;2023-03-05T15:13:14;5.00;;;1.80;;
70312;SDS011;57723;51.698;5.344;2023-03-05T15:15:40;2.75;;;1.23;;
70312;SDS011;57723;51.698;5.344;2023-03-05T15:18:11;4.25;;;1.70;;
70312;SDS011;57723;51.698;5.344;2023-03-05T15:20:37;3.00;;;1.40;;
70312;SDS011;57723;51.698;5.344;2023-03-05T15:23:03;4.50;;;1.40;;
70312;SDS011;57723;51.698;5.344;2023-03-05T15:25:29;3.67;;;1.40;;
70312;SDS011;57723;51.698;5.344;2023-03-05T15:27:56;3.13;;;1.40;;
70312;SDS011;57723;51.698;5.344;2023-03-05T15:32:47;2.77;;;1.33;;
70312;SDS011;57723;51.698;5.344;2023-03-05T15:35:13;3.40;;;1.42;;
70312;SDS011;57723;51.698;5.344;2023-03-05T15:37:39;3.72;;;1.42;;
70312;SDS011;57723;51.698;5.344;2023-03-05T15:40:08;2.50;;;1.30;;
70312;SDS011;57723;51.698;5.344;2023-03-05T15:42:34;3.15;;;1.17;;
70312;SDS011;57723;51.698;5.344;2023-03-05T15:45:02;3.38;;;1.30;;
70312;SDS011;57723;51.698;5.344;2023-03-05T15:47:28;3.10;;;1.35;;
70312;SDS011;57723;51.698;5.344;2023-03-05T15:49:54;2.70;;;1.15;;
70312;SDS011;57723;51.698;5.344;2023-03-05T15:52:19;2.57;;;1.20;;
70312;SDS011;57723;51.698;5.344;2023-03-05T15:54:45;2.80;;;1.20;;
70312;SDS011;57723;51.698;5.344;2023-03-05T15:57:10;2.35;;;1.25;;
70312;SDS011;57723;51.698;5.344;2023-03-05T15:59:37;3.40;;;1.45;;
70312;SDS011;57723;51.698;5.344;2023-03-05T16:02:03;3.03;;;1.20;;
70312;SDS011;57723;51.698;5.344;2023-03-05T16:04:32;2.88;;;1.30;;